Time;durP1;ratioP1;P1;durP2;ratioP2;P2;SDS_P1;SDS_P2;PMS_P1;PMS_P2;Temp;Humidity;BMP_temperature;BMP_pressure;BME280_temperature;BME280_humidity;BME280_pressure;Samples;Min_cycle;Max_cycle;Signal;HPM_P1;HPM_P2
2022/05/31 00:01:31;;;;;;;1.47;1.07;;;12.10;91.80;;;;;;5018038;28;20981;-76
2022/05/31 00:03:59;;;;;;;1.47;1.10;;;12.10;91.90;;;;;;5027859;28;20569;-76
2022/05/31 00:06:26;;;;;;;1.43;1.00;;;12.00;92.30;;;;;;5027886;28;20481;-74
2022/05/31 00:08:54;;;;;;;1.50;1.10;;;12.00;92.40;;;;;;5027659;28;20463;-75
2022/05/31 00:11:22;;;;;;;1.47;1.10;;;12.00;92.10;;;;;;5025164;28;21000;-75
2022/05/31 00:13:48;;;;;;;1.50;1.10;;;12.00;92.40;;;;;;5022022;28;20517;-75
2022/05/31 00:16:15;;;;;;;1.47;1.10;;;12.00;92.50;;;;;;5010431;28;20480;-75
2022/05/31 00:18:42;;;;;;;1.43;1.07;;;12.00;92.40;;;;;;5012254;28;20464;-75
2022/05/31 00:21:09;;;;;;;1.50;1.10;;;12.00;92.50;;;;;;5025657;28;20475;-75
2022/05/31 00:23:39;;;;;;;1.50;1.00;;;12.00;92.40;;;;;;5025995;28;20495;-75
2022/05/31 00:26:07;;;;;;;1.60;1.40;;;12.00;92.30;;;;;;5025521;28;20494;-75
2022/05/31 00:28:35;;;;;;;1.43;1.00;;;12.00;92.10;;;;;;5044498;22;20495;-74
2022/05/31 00:31:04;;;;;;;1.47;1.00;;;12.00;92.40;;;;;;5023944;28;20459;-74
2022/05/31 00:33:31;;;;;;;1.50;1.10;;;12.00;92.30;;;;;;5026327;28;20466;-74
2022/05/31 00:35:58;;;;;;;1.60;1.30;;;12.00;92.50;;;;;;5027552;28;20986;-74
2022/05/31 00:38:24;;;;;;;1.50;1.00;;;12.00;92.50;;;;;;5012818;28;20561;-74
2022/05/31 00:40:51;;;;;;;1.50;1.07;;;12.00;92.30;;;;;;4997177;28;20477;-74
2022/05/31 00:43:22;;;;;;;1.50;1.00;;;12.10;92.20;;;;;;5006854;28;20488;-74
2022/05/31 00:45:56;;;;;;;1.50;1.00;;;12.10;92.50;;;;;;5008075;28;20470;-74
2022/05/31 00:48:25;;;;;;;1.47;1.00;;;12.10;92.30;;;;;;5009568;28;20484;-73
2022/05/31 00:50:56;;;;;;;1.50;1.20;;;12.10;92.50;;;;;;5010231;28;20530;-74
2022/05/31 00:53:26;;;;;;;1.50;1.03;;;12.20;92.20;;;;;;5005335;28;20464;-74
2022/05/31 00:55:57;;;;;;;1.50;1.10;;;12.20;92.20;;;;;;4996046;28;20475;-73
2022/05/31 00:58:30;;;;;;;1.50;1.00;;;12.20;92.30;;;;;;4995509;28;20492;-74
2022/05/31 01:00:58;;;;;;;1.40;1.00;;;12.20;92.10;;;;;;5011701;28;21001;-74
2022/05/31 01:03:25;;;;;;;1.50;1.10;;;12.20;92.70;;;;;;5011931;28;20502;-74
2022/05/31 01:05:52;;;;;;;1.47;1.10;;;12.20;92.30;;;;;;5010836;28;20462;-73
2022/05/31 01:08:19;;;;;;;1.50;1.10;;;12.20;92.70;;;;;;5009743;28;20479;-73
2022/05/31 01:10:46;;;;;;;1.50;1.10;;;12.20;92.90;;;;;;5011127;28;20470;-73
2022/05/31 01:13:16;;;;;;;1.47;1.03;;;12.20;92.70;;;;;;4984378;28;20468;-73
2022/05/31 01:15:45;;;;;;;1.47;1.00;;;12.10;93.20;;;;;;5011062;28;20463;-74
2022/05/31 01:18:13;;;;;;;1.47;1.10;;;12.10;93.00;;;;;;5010617;28;20475;-73
2022/05/31 01:20:41;;;;;;;1.43;1.00;;;12.10;93.30;;;;;;5004677;28;20464;-74
2022/05/31 01:23:12;;;;;;;1.50;1.20;;;12.00;93.20;;;;;;5009845;28;20463;-73
2022/05/31 01:25:51;;;;;;;1.43;1.03;;;12.00;93.40;;;;;;5009912;28;20460;-74
2022/05/31 01:28:26;;;;;;;1.50;1.10;;;12.00;93.50;;;;;;4998295;28;20932;-74
2022/05/31 01:30:57;;;;;;;1.50;1.00;;;12.00;93.30;;;;;;5003941;28;20459;-77
2022/05/31 01:33:28;;;;;;;1.50;1.10;;;12.00;93.30;;;;;;5009346;28;20488;-74
2022/05/31 01:35:58;;;;;;;1.50;1.10;;;12.00;93.40;;;;;;5010744;28;20550;-74
2022/05/31 01:38:31;;;;;;;1.47;1.10;;;12.00;93.70;;;;;;5006618;28;20858;-73
2022/05/31 01:41:08;;;;;;;1.50;1.10;;;12.00;93.80;;;;;;5009340;28;20459;-75
2022/05/31 01:43:35;;;;;;;1.50;1.10;;;12.00;93.80;;;;;;5011258;28;21018;-74
2022/05/31 01:46:05;;;;;;;1.50;1.20;;;12.00;94.00;;;;;;5010089;28;20979;-73
2022/05/31 01:48:34;;;;;;;1.47;1.10;;;12.00;93.80;;;;;;5011042;28;20488;-73
2022/05/31 01:51:04;;;;;;;1.50;1.10;;;12.00;93.40;;;;;;5010231;28;20949;-74
2022/05/31 01:53:33;;;;;;;1.50;1.00;;;12.00;94.00;;;;;;5010243;28;20831;-73
2022/05/31 01:56:00;;;;;;;1.50;1.20;;;12.00;93.60;;;;;;5009617;28;20460;-73
2022/05/31 01:58:29;;;;;;;1.50;1.10;;;12.00;93.70;;;;;;5009666;28;20487;-74
2022/05/31 02:00:56;;;;;;;1.47;1.00;;;12.00;93.60;;;;;;5009670;28;20456;-73
2022/05/31 02:03:24;;;;;;;1.47;1.10;;;12.00;93.60;;;;;;5010347;28;20835;-74
2022/05/31 02:05:53;;;;;;;1.50;1.10;;;12.00;93.60;;;;;;5010981;28;20741;-74
2022/05/31 02:08:24;;;;;;;1.47;1.10;;;12.00;93.50;;;;;;5006801;28;20484;-74
2022/05/31 02:10:51;;;;;;;1.50;1.10;;;12.00;93.70;;;;;;4998300;28;20476;-73
2022/05/31 02:13:19;;;;;;;1.50;1.10;;;12.00;93.60;;;;;;4979205;28;20951;-74
2022/05/31 02:15:46;;;;;;;1.50;1.10;;;12.00;93.70;;;;;;5010872;28;20468;-74
2022/05/31 02:18:13;;;;;;;1.50;1.10;;;12.00;93.10;;;;;;5004449;28;20484;-73
2022/05/31 02:20:40;;;;;;;1.43;1.10;;;12.00;93.40;;;;;;5010203;28;20476;-74
2022/05/31 02:23:07;;;;;;;1.50;1.20;;;12.00;93.50;;;;;;5010436;28;20476;-73
2022/05/31 02:25:35;;;;;;;1.50;1.10;;;12.00;93.80;;;;;;5009689;28;20492;-74
2022/05/31 02:28:02;;;;;;;1.50;1.30;;;12.00;94.00;;;;;;4998635;28;20488;-73
2022/05/31 02:30:28;;;;;;;1.47;1.10;;;12.00;93.60;;;;;;5010011;28;20468;-73
2022/05/31 02:32:55;;;;;;;1.47;1.10;;;12.00;93.80;;;;;;5009834;28;20468;-73
2022/05/31 02:35:22;;;;;;;1.50;1.10;;;12.00;94.00;;;;;;5009031;28;20479;-73
2022/05/31 02:37:49;;;;;;;1.47;1.10;;;12.00;93.90;;;;;;4998140;28;20527;-74
2022/05/31 02:40:15;;;;;;;1.43;1.00;;;12.00;94.10;;;;;;5009356;28;20843;-74
2022/05/31 02:42:44;;;;;;;1.50;1.10;;;12.00;93.50;;;;;;4998572;28;20488;-75
2022/05/31 02:45:11;;;;;;;1.47;1.10;;;11.90;92.90;;;;;;5007945;28;20496;-75
2022/05/31 02:47:39;;;;;;;1.47;1.00;;;12.00;92.70;;;;;;4990970;28;20497;-75
2022/05/31 02:50:08;;;;;;;1.47;1.00;;;12.00;92.30;;;;;;5006886;28;21046;-75
2022/05/31 02:52:35;;;;;;;1.47;1.00;;;12.00;92.50;;;;;;4988702;28;20539;-76
2022/05/31 02:55:01;;;;;;;1.50;1.10;;;12.00;92.50;;;;;;5007304;28;20468;-75
2022/05/31 02:57:28;;;;;;;1.50;1.00;;;12.10;92.30;;;;;;5010117;28;20491;-74
2022/05/31 02:59:57;;;;;;;1.47;1.10;;;12.00;92.60;;;;;;5009732;28;20548;-74
2022/05/31 03:02:24;;;;;;;1.50;1.10;;;12.00;92.20;;;;;;5009958;28;20480;-74
2022/05/31 03:04:51;;;;;;;1.50;1.10;;;12.00;92.60;;;;;;5005651;28;20492;-75
2022/05/31 03:07:18;;;;;;;1.50;1.10;;;12.00;92.60;;;;;;5010620;28;20489;-74
2022/05/31 03:09:44;;;;;;;1.47;1.10;;;12.00;92.60;;;;;;5008861;28;20476;-74
2022/05/31 03:12:16;;;;;;;1.47;1.00;;;12.00;92.60;;;;;;5009915;28;20460;-75
2022/05/31 03:14:46;;;;;;;1.47;1.03;;;12.00;92.40;;;;;;5008817;28;20456;-75
2022/05/31 03:17:19;;;;;;;1.43;1.00;;;12.00;92.80;;;;;;5008484;28;21079;-74
2022/05/31 03:19:50;;;;;;;1.47;1.10;;;12.00;92.80;;;;;;5008136;28;20471;-75
2022/05/31 03:22:21;;;;;;;1.50;1.10;;;12.00;93.10;;;;;;4997124;28;20496;-74
2022/05/31 03:24:53;;;;;;;1.50;1.07;;;12.00;93.10;;;;;;5003384;28;20479;-75
2022/05/31 03:27:20;;;;;;;1.77;1.67;;;12.00;92.90;;;;;;4990453;28;20491;-75
2022/05/31 03:29:48;;;;;;;1.47;1.00;;;12.00;93.10;;;;;;5003728;28;20551;-75
2022/05/31 03:32:17;;;;;;;1.43;1.00;;;12.00;93.10;;;;;;4988523;28;20481;-74
2022/05/31 03:34:44;;;;;;;1.47;1.10;;;12.00;93.20;;;;;;5004454;28;20464;-74
2022/05/31 03:37:11;;;;;;;1.47;1.10;;;12.00;93.20;;;;;;4985662;28;20484;-74
2022/05/31 03:39:38;;;;;;;1.50;1.20;;;12.00;93.30;;;;;;5002557;28;20628;-73
2022/05/31 03:42:07;;;;;;;1.47;1.00;;;12.00;93.70;;;;;;5008695;28;20455;-74
2022/05/31 03:44:33;;;;;;;1.47;1.00;;;12.00;93.60;;;;;;5007836;28;20495;-74
2022/05/31 03:47:02;;;;;;;1.47;1.07;;;12.00;93.40;;;;;;5002848;28;20491;-74
2022/05/31 03:49:30;;;;;;;1.50;1.10;;;12.00;93.30;;;;;;5002178;28;20491;-74
2022/05/31 03:51:57;;;;;;;1.47;1.10;;;12.00;92.90;;;;;;5008231;28;20844;-73
2022/05/31 03:54:24;;;;;;;1.50;1.20;;;12.10;93.40;;;;;;5008514;28;20467;-74
2022/05/31 03:56:51;;;;;;;1.43;1.00;;;12.10;93.50;;;;;;4997425;28;20851;-74
2022/05/31 03:59:18;;;;;;;1.50;1.00;;;12.10;93.60;;;;;;5003622;28;20480;-74
2022/05/31 04:01:45;;;;;;;1.43;1.00;;;12.10;93.70;;;;;;5002299;28;20513;-75
2022/05/31 04:04:11;;;;;;;1.50;1.10;;;12.10;93.80;;;;;;5007519;28;20494;-74
2022/05/31 04:06:39;;;;;;;1.50;1.10;;;12.10;94.10;;;;;;4990525;28;20551;-74
2022/05/31 04:09:06;;;;;;;1.50;1.10;;;12.10;93.90;;;;;;4997158;28;20704;-75
2022/05/31 04:11:33;;;;;;;1.50;1.10;;;12.10;94.20;;;;;;5007835;28;20468;-74
2022/05/31 04:14:01;;;;;;;1.50;1.10;;;12.10;94.20;;;;;;5002586;28;20464;-73
2022/05/31 04:16:28;;;;;;;1.50;1.10;;;12.10;94.00;;;;;;4991719;28;20480;-74
2022/05/31 04:18:55;;;;;;;1.43;1.00;;;12.10;94.30;;;;;;5000608;28;20516;-74
2022/05/31 04:21:22;;;;;;;1.50;1.10;;;12.00;94.10;;;;;;5006404;28;20960;-75
2022/05/31 04:24:01;;;;;;;1.47;1.00;;;12.10;94.20;;;;;;5008240;28;20964;-74
2022/05/31 04:26:31;;;;;;;1.50;1.00;;;12.10;93.80;;;;;;5000972;28;20459;-74
2022/05/31 04:28:58;;;;;;;1.50;1.10;;;12.10;94.10;;;;;;5006198;28;20511;-75
2022/05/31 04:31:25;;;;;;;1.43;1.00;;;12.10;94.40;;;;;;5006619;28;20562;-74
2022/05/31 04:33:52;;;;;;;1.50;1.20;;;12.00;94.30;;;;;;5008432;28;20468;-74
2022/05/31 04:36:21;;;;;;;1.47;1.10;;;12.00;94.50;;;;;;4997996;28;20483;-74
2022/05/31 04:38:49;;;;;;;1.50;1.10;;;12.00;94.70;;;;;;5007181;28;20933;-74
2022/05/31 04:41:19;;;;;;;1.50;1.10;;;12.10;94.40;;;;;;5007621;28;20468;-75
2022/05/31 04:43:46;;;;;;;1.50;1.10;;;12.10;94.50;;;;;;5007532;28;20463;-75
2022/05/31 04:46:15;;;;;;;1.47;1.07;;;12.10;94.20;;;;;;5005968;28;20868;-74
2022/05/31 04:48:42;;;;;;;1.47;1.00;;;12.10;94.00;;;;;;5007226;28;20512;-75
2022/05/31 04:51:09;;;;;;;1.47;1.00;;;12.10;94.10;;;;;;4998882;28;20488;-74
2022/05/31 04:53:36;;;;;;;1.47;1.10;;;12.20;94.30;;;;;;5006548;28;20482;-74
2022/05/31 04:56:06;;;;;;;1.47;1.00;;;12.20;94.30;;;;;;5008142;28;20464;-74
2022/05/31 04:58:33;;;;;;;1.50;1.10;;;12.20;94.20;;;;;;5006066;28;20492;-74
2022/05/31 05:01:01;;;;;;;1.40;1.00;;;12.20;94.10;;;;;;5003117;28;20475;-74
2022/05/31 05:03:29;;;;;;;1.50;1.10;;;12.20;94.00;;;;;;5007629;28;20460;-75
2022/05/31 05:06:00;;;;;;;1.50;1.07;;;12.20;93.90;;;;;;4997155;28;20819;-74
2022/05/31 05:08:26;;;;;;;1.40;1.00;;;12.20;93.90;;;;;;5007405;28;21030;-75
2022/05/31 05:10:53;;;;;;;1.50;1.00;;;12.20;93.60;;;;;;4997294;28;20471;-75
2022/05/31 05:13:22;;;;;;;1.43;1.00;;;12.20;93.60;;;;;;4990094;28;20467;-74
2022/05/31 05:15:48;;;;;;;1.47;1.00;;;12.20;93.40;;;;;;5006814;28;20464;-75
2022/05/31 05:18:15;;;;;;;1.50;1.10;;;12.30;93.50;;;;;;5005545;28;20486;-75
2022/05/31 05:20:42;;;;;;;1.50;1.00;;;12.30;93.20;;;;;;5005610;28;20999;-75
2022/05/31 05:23:09;;;;;;;1.50;1.03;;;12.40;92.70;;;;;;4966358;28;20503;-75
2022/05/31 05:25:36;;;;;;;1.40;1.00;;;12.40;92.60;;;;;;5007481;28;20496;-74
2022/05/31 05:30:38;;;;;;;1.50;1.00;;;12.50;92.30;;;;;;5002251;28;20498;-75
2022/05/31 05:30:51;;;;;;;1.50;1.00;;;12.60;91.40;;;;;;5005623;28;21124;-75
2022/05/31 05:33:19;;;;;;;1.50;1.10;;;12.60;91.70;;;;;;5006960;28;20464;-75
2022/05/31 05:35:46;;;;;;;1.50;1.00;;;12.60;91.30;;;;;;5009219;28;20892;-75
2022/05/31 05:38:13;;;;;;;1.53;1.30;;;12.60;90.50;;;;;;5007196;28;20487;-75
2022/05/31 05:40:41;;;;;;;1.50;1.00;;;12.70;90.50;;;;;;5005615;28;20459;-74
2022/05/31 05:43:08;;;;;;;1.43;1.00;;;12.70;90.40;;;;;;4989735;28;20491;-75
2022/05/31 05:45:36;;;;;;;1.50;1.00;;;12.70;90.40;;;;;;5003141;28;20494;-74
2022/05/31 05:48:06;;;;;;;1.50;1.10;;;12.80;90.40;;;;;;4996268;28;20590;-74
2022/05/31 05:50:35;;;;;;;1.50;1.10;;;12.80;90.60;;;;;;5005917;28;20463;-74
2022/05/31 05:53:06;;;;;;;1.50;1.00;;;12.80;90.80;;;;;;5004777;28;20550;-74
2022/05/31 05:55:33;;;;;;;1.50;1.10;;;12.80;91.80;;;;;;5005803;28;20541;-73
2022/05/31 05:58:01;;;;;;;1.47;1.00;;;12.90;91.50;;;;;;5005998;28;20858;-73
2022/05/31 06:00:28;;;;;;;1.47;1.00;;;12.90;91.80;;;;;;5005654;28;21067;-73
2022/05/31 06:02:59;;;;;;;1.50;1.00;;;12.90;91.70;;;;;;5004835;28;20463;-75
2022/05/31 06:05:30;;;;;;;1.47;1.00;;;12.90;92.60;;;;;;5001806;28;20807;-73
2022/05/31 06:08:01;;;;;;;1.47;1.07;;;12.90;93.10;;;;;;4993960;28;20670;-73
2022/05/31 06:10:35;;;;;;;1.50;1.07;;;13.00;93.20;;;;;;5006087;28;20973;-73
2022/05/31 06:13:07;;;;;;;1.47;1.00;;;13.00;95.20;;;;;;4991865;28;20536;-72
2022/05/31 06:15:42;;;;;;;1.47;1.00;;;12.90;95.80;;;;;;5006812;28;20460;-73
2022/05/31 06:18:15;;;;;;;1.50;1.10;;;12.90;96.50;;;;;;5007767;28;20947;-73
2022/05/31 06:20:48;;;;;;;1.50;1.00;;;12.90;98.20;;;;;;5006874;28;20571;-73
2022/05/31 06:23:16;;;;;;;1.47;1.00;;;12.80;97.40;;;;;;5011202;28;21006;-73
2022/05/31 06:25:43;;;;;;;1.43;1.00;;;12.80;96.90;;;;;;5008468;28;20494;-73
2022/05/31 06:28:09;;;;;;;1.47;1.00;;;12.70;97.20;;;;;;5006721;28;20503;-75
2022/05/31 06:30:37;;;;;;;1.47;1.00;;;12.80;97.90;;;;;;5005615;28;20472;-74
2022/05/31 06:33:05;;;;;;;1.50;1.00;;;12.80;97.80;;;;;;5007098;28;20467;-75
2022/05/31 06:35:32;;;;;;;1.50;1.00;;;12.80;98.00;;;;;;5005208;28;20468;-77
2022/05/31 06:38:01;;;;;;;1.47;1.00;;;12.80;97.90;;;;;;5007350;28;20488;-75
2022/05/31 06:40:28;;;;;;;1.50;1.10;;;12.80;98.20;;;;;;5006138;28;20474;-78
2022/05/31 06:42:54;;;;;;;1.47;1.00;;;12.90;98.00;;;;;;4995800;28;20487;-77
2022/05/31 06:45:21;;;;;;;1.47;1.00;;;12.90;98.00;;;;;;5007914;28;20495;-78
2022/05/31 06:47:48;;;;;;;1.50;1.00;;;13.00;98.20;;;;;;4995779;28;21014;-76
2022/05/31 06:50:15;;;;;;;1.47;1.00;;;13.00;98.20;;;;;;5006085;28;20554;-75
2022/05/31 06:58:12;;;;;;;1.47;1.00;;;13.30;98.20;;;;;;5006011;28;20531;-76
2022/05/31 07:00:39;;;;;;;1.50;1.00;;;13.40;97.80;;;;;;5006692;28;20473;-76
2022/05/31 07:03:06;;;;;;;1.50;1.00;;;13.50;96.90;;;;;;5007219;28;20893;-79
2022/05/31 07:05:33;;;;;;;1.50;1.00;;;13.60;98.00;;;;;;5008140;28;21113;-79
2022/05/31 07:08:00;;;;;;;1.50;1.00;;;13.70;98.20;;;;;;5007076;28;20888;-75
2022/05/31 07:10:28;;;;;;;1.47;1.00;;;13.90;98.20;;;;;;5007570;28;20474;-81
2022/05/31 07:12:55;;;;;;;1.50;1.00;;;14.00;98.20;;;;;;5008056;28;20692;-76
2022/05/31 07:15:21;;;;;;;1.50;1.00;;;14.20;98.20;;;;;;5008022;28;20475;-79
2022/05/31 07:17:48;;;;;;;1.50;1.00;;;14.60;98.20;;;;;;4993779;28;20499;-75
2022/05/31 07:20:15;;;;;;;1.50;1.00;;;15.00;98.20;;;;;;5003676;28;20870;-77
2022/05/31 07:22:42;;;;;;;1.50;1.00;;;15.50;96.30;;;;;;5006995;28;20471;-75
2022/05/31 07:25:10;;;;;;;1.50;0.90;;;15.70;96.40;;;;;;5006236;28;20496;-78
2022/05/31 07:27:39;;;;;;;1.50;0.90;;;16.10;93.00;;;;;;4993467;28;20518;-77
2022/05/31 07:30:07;;;;;;;1.50;1.00;;;16.30;91.80;;;;;;5005605;28;20460;-77
2022/05/31 07:32:34;;;;;;;1.50;0.90;;;16.40;91.20;;;;;;4993823;28;20776;-76
2022/05/31 07:35:01;;;;;;;1.50;1.00;;;16.50;91.40;;;;;;5007348;28;20594;-76
2022/05/31 07:37:29;;;;;;;1.43;0.90;;;16.50;90.40;;;;;;5017971;28;20488;-75
2022/05/31 07:39:56;;;;;;;1.50;0.90;;;16.60;90.00;;;;;;5006311;28;20483;-76
2022/05/31 07:42:23;;;;;;;1.50;1.00;;;16.70;90.70;;;;;;5007821;28;21060;-79
2022/05/31 07:44:55;;;;;;;1.50;1.00;;;16.80;90.70;;;;;;5006080;28;20502;-76
2022/05/31 07:47:23;;;;;;;1.47;0.93;;;16.80;90.70;;;;;;5005810;28;20476;-76
2022/05/31 07:49:50;;;;;;;1.50;1.00;;;16.80;89.90;;;;;;5005273;28;20848;-76
2022/05/31 07:52:18;;;;;;;1.73;1.63;;;16.70;89.10;;;;;;5003477;28;20463;-76
2022/05/31 07:54:44;;;;;;;1.50;1.00;;;16.50;89.10;;;;;;5005152;28;20926;-76
2022/05/31 07:58:30;;;;;;;1.43;0.90;;;16.40;89.10;;;;;;5004228;28;20464;-75
2022/05/31 07:59:59;;;;;;;1.50;0.90;;;16.40;89.00;;;;;;5003426;28;20460;-76
2022/05/31 08:02:26;;;;;;;1.43;0.90;;;16.20;89.80;;;;;;4993587;28;20956;-75
2022/05/31 08:04:53;;;;;;;1.47;1.00;;;16.10;88.90;;;;;;5004478;28;20475;-75
2022/05/31 08:07:20;;;;;;;1.43;1.00;;;16.00;89.50;;;;;;5004543;28;20496;-76
2022/05/31 08:09:46;;;;;;;1.50;1.00;;;16.00;90.20;;;;;;5003253;28;20911;-75
2022/05/31 08:12:14;;;;;;;1.50;1.00;;;15.90;90.30;;;;;;5004840;28;20460;-75
2022/05/31 08:14:40;;;;;;;1.50;1.00;;;15.90;91.50;;;;;;5004429;28;20464;-75
2022/05/31 08:17:09;;;;;;;1.50;0.90;;;15.90;91.00;;;;;;5004943;28;20601;-75
2022/05/31 08:19:37;;;;;;;1.50;1.00;;;15.80;90.80;;;;;;5002848;28;20460;-75
2022/05/31 08:22:05;;;;;;;1.40;0.90;;;15.90;91.10;;;;;;5004167;28;20460;-76
2022/05/31 08:24:32;;;;;;;1.50;0.90;;;15.80;91.40;;;;;;5004690;28;20471;-75
2022/05/31 08:27:00;;;;;;;1.50;0.90;;;15.90;91.40;;;;;;5004186;28;20488;-75
2022/05/31 08:29:27;;;;;;;1.50;1.00;;;15.80;91.30;;;;;;5003670;28;21238;-75
2022/05/31 08:31:54;;;;;;;1.50;1.00;;;15.90;91.30;;;;;;5004872;28;20468;-75
2022/05/31 08:34:22;;;;;;;1.47;0.90;;;15.90;91.60;;;;;;5005239;28;20899;-75
2022/05/31 08:36:49;;;;;;;1.50;0.90;;;15.90;91.20;;;;;;5005636;28;20924;-75
2022/05/31 08:39:16;;;;;;;1.43;1.00;;;15.90;91.00;;;;;;5003841;28;20488;-75
2022/05/31 08:41:45;;;;;;;1.43;0.90;;;15.90;91.60;;;;;;5003698;28;20475;-75
2022/05/31 08:44:31;;;;;;;1.43;1.00;;;15.90;90.90;;;;;;5004990;28;21113;-74
2022/05/31 08:47:01;;;;;;;1.43;0.90;;;15.90;91.30;;;;;;5007179;28;20519;-74
2022/05/31 08:52:36;;;;;;;1.43;0.90;;;15.80;91.90;;;;;;5002202;28;20459;-74
2022/05/31 08:58:01;;;;;;;1.50;0.90;;;15.90;92.30;;;;;;5003695;28;20467;-74
2022/05/31 09:00:34;;;;;;;1.50;0.90;;;15.90;92.30;;;;;;5003544;28;20968;-75
2022/05/31 09:03:10;;;;;;;1.43;0.97;;;15.90;91.70;;;;;;5003805;28;20475;-76
2022/05/31 09:05:44;;;;;;;1.50;0.90;;;16.00;90.10;;;;;;4998511;28;21377;-74
2022/05/31 09:08:17;;;;;;;1.43;1.00;;;15.90;90.20;;;;;;5004705;28;20487;-74
2022/05/31 09:10:49;;;;;;;1.43;0.93;;;16.00;90.30;;;;;;5004692;28;20490;-75
2022/05/31 09:13:20;;;;;;;1.50;1.00;;;16.10;90.20;;;;;;5007624;28;21091;-74
2022/05/31 09:15:51;;;;;;;1.47;0.90;;;16.10;90.60;;;;;;5006837;28;20483;-74
2022/05/31 09:18:23;;;;;;;1.63;1.20;;;16.10;90.10;;;;;;5004921;28;20490;-74
2022/05/31 09:20:54;;;;;;;1.50;0.90;;;16.20;90.70;;;;;;5006938;28;20464;-74
2022/05/31 09:23:24;;;;;;;1.43;1.00;;;16.20;90.80;;;;;;5005427;28;20460;-74
2022/05/31 09:25:58;;;;;;;1.50;1.00;;;16.10;90.60;;;;;;5005836;28;20480;-74
2022/05/31 09:28:36;;;;;;;1.50;0.90;;;16.20;90.80;;;;;;5002516;28;20907;-75
2022/05/31 09:31:12;;;;;;;1.63;1.53;;;16.20;88.40;;;;;;5005698;28;21027;-75
2022/05/31 09:33:51;;;;;;;1.50;0.90;;;16.20;88.90;;;;;;5007758;28;20473;-74
2022/05/31 09:36:27;;;;;;;1.47;0.90;;;16.20;88.50;;;;;;5007686;28;20991;-74
2022/05/31 09:39:19;;;;;;;1.43;0.90;;;16.20;87.00;;;;;;5007158;28;20828;-74
2022/05/31 09:41:52;;;;;;;1.40;0.90;;;16.30;84.80;;;;;;5005525;28;20789;-74
2022/05/31 09:44:27;;;;;;;1.50;1.00;;;16.40;85.30;;;;;;5007144;28;20491;-74
2022/05/31 09:47:01;;;;;;;1.43;0.90;;;16.60;86.00;;;;;;4994709;28;20881;-74
2022/05/31 09:49:36;;;;;;;1.47;1.00;;;17.00;84.90;;;;;;4998715;28;20472;-74
2022/05/31 09:52:08;;;;;;;1.47;0.90;;;17.20;84.30;;;;;;5006205;28;20471;-74
2022/05/31 09:57:54;;;;;;;1.50;0.90;;;17.80;81.40;;;;;;5003688;28;20475;-74
2022/05/31 10:00:22;;;;;;;4.27;3.73;;;18.00;82.00;;;;;;5000840;28;20483;-75
2022/05/31 10:03:03;;;;;;;1.50;0.90;;;18.00;81.40;;;;;;5005167;28;20465;-75
2022/05/31 10:05:30;;;;;;;1.50;0.90;;;18.20;81.60;;;;;;5002134;28;20468;-74
2022/05/31 10:07:58;;;;;;;1.50;0.90;;;18.30;81.40;;;;;;5006921;28;20502;-74
2022/05/31 10:10:28;;;;;;;1.50;0.90;;;18.70;81.30;;;;;;5005452;28;20476;-74
2022/05/31 10:12:57;;;;;;;1.50;0.90;;;19.00;79.80;;;;;;5006180;28;20783;-74
2022/05/31 10:15:50;;;;;;;1.50;0.90;;;19.10;79.20;;;;;;5006750;28;20467;-73
2022/05/31 10:18:27;;;;;;;1.50;0.90;;;19.40;79.60;;;;;;5007299;28;20514;-73
2022/05/31 10:20:57;;;;;;;1.50;0.90;;;19.60;81.00;;;;;;5004326;28;20467;-77
2022/05/31 10:23:34;;;;;;;1.43;0.90;;;19.80;79.00;;;;;;5005863;28;20818;-75
2022/05/31 10:26:01;;;;;;;1.50;0.93;;;20.00;78.50;;;;;;5001324;28;20514;-74
2022/05/31 10:28:31;;;;;;;1.43;0.90;;;20.10;77.20;;;;;;5012115;28;20503;-78
2022/05/31 10:31:04;;;;;;;1.47;0.90;;;20.00;77.10;;;;;;5003426;28;20460;-77
2022/05/31 10:33:32;;;;;;;1.50;1.00;;;20.00;76.90;;;;;;5006104;28;20468;-74
2022/05/31 10:36:15;;;;;;;1.50;0.90;;;19.80;76.00;;;;;;5006168;28;20479;-74
2022/05/31 10:38:45;;;;;;;1.47;0.90;;;19.50;77.50;;;;;;5004845;28;20483;-76
2022/05/31 10:41:24;;;;;;;1.50;0.90;;;19.20;78.40;;;;;;5002469;28;21014;-75
2022/05/31 10:43:53;;;;;;;1.43;0.90;;;19.20;78.10;;;;;;4999844;28;20585;-75
2022/05/31 10:46:27;;;;;;;1.50;0.90;;;19.30;80.00;;;;;;5004988;28;20500;-74
2022/05/31 10:49:00;;;;;;;1.50;0.90;;;19.40;79.50;;;;;;5007759;28;20484;-75
2022/05/31 10:51:39;;;;;;;1.50;1.00;;;19.50;79.90;;;;;;5005242;28;20469;-74
2022/05/31 10:54:45;;;;;;;1.43;0.90;;;19.70;79.80;;;;;;5004892;28;20475;-75
2022/05/31 10:57:27;;;;;;;1.47;0.90;;;20.10;79.50;;;;;;5004118;28;20459;-76
2022/05/31 11:00:01;;;;;;;1.50;0.90;;;20.40;77.10;;;;;;5004617;28;20474;-75
2022/05/31 11:02:59;;;;;;;1.47;0.90;;;20.90;75.80;;;;;;5004440;28;20460;-76
2022/05/31 11:05:38;;;;;;;1.43;0.80;;;21.40;75.30;;;;;;5005484;28;20849;-75
2022/05/31 11:11:30;;;;;;;1.47;0.90;;;22.20;75.00;;;;;;5003441;28;20449;-76
2022/05/31 11:14:14;;;;;;;1.43;0.80;;;22.40;71.10;;;;;;5005611;28;20837;-75
2022/05/31 11:16:58;;;;;;;1.47;0.90;;;22.70;72.70;;;;;;4991187;28;20480;-75
2022/05/31 11:19:33;;;;;;;1.47;0.80;;;22.60;71.10;;;;;;4998717;28;20468;-75
2022/05/31 11:22:14;;;;;;;1.47;0.80;;;22.50;71.00;;;;;;5002630;28;20479;-75
2022/05/31 11:24:53;;;;;;;1.43;0.80;;;22.60;72.60;;;;;;5004412;28;20484;-75
2022/05/31 11:27:36;;;;;;;1.50;0.80;;;23.00;70.70;;;;;;4986822;28;20550;-75
2022/05/31 11:30:16;;;;;;;1.50;0.90;;;23.50;69.50;;;;;;5004228;28;20847;-76
2022/05/31 11:32:57;;;;;;;1.50;0.87;;;23.80;66.50;;;;;;4991782;28;20491;-77
2022/05/31 11:35:48;;;;;;;1.47;0.87;;;23.80;65.70;;;;;;4998302;28;20472;-75
2022/05/31 11:38:21;;;;;;;1.50;0.83;;;23.80;67.60;;;;;;5004348;28;20968;-75
2022/05/31 11:41:02;;;;;;;1.50;0.80;;;24.20;67.80;;;;;;5004389;28;20468;-75
2022/05/31 11:43:54;;;;;;;1.47;0.80;;;24.30;65.20;;;;;;5003688;28;20778;-74
2022/05/31 11:46:28;;;;;;;1.50;0.83;;;24.70;64.60;;;;;;5000729;28;21001;-75
2022/05/31 11:48:59;;;;;;;1.50;0.90;;;25.10;65.90;;;;;;5003348;28;20555;-76
2022/05/31 11:51:43;;;;;;;1.43;0.80;;;25.40;64.20;;;;;;5002069;28;20827;-76
2022/05/31 11:55:25;;;;;;;1.40;0.80;;;25.50;64.90;;;;;;5005224;28;20507;-76
2022/05/31 11:57:46;;;;;;;1.50;0.80;;;25.70;64.00;;;;;;4996680;28;20862;-76
2022/05/31 12:00:17;;;;;;;1.40;0.80;;;25.70;63.20;;;;;;5005076;28;20967;-76
2022/05/31 12:02:50;;;;;;;1.47;0.80;;;25.70;65.00;;;;;;5003727;28;20567;-75
2022/05/31 12:05:23;;;;;;;1.50;0.80;;;25.80;62.10;;;;;;5004645;28;20463;-76
2022/05/31 12:07:58;;;;;;;1.43;0.80;;;25.80;64.10;;;;;;5002325;28;20959;-76
2022/05/31 12:10:28;;;;;;;1.40;0.80;;;25.60;62.20;;;;;;5002841;28;20499;-76
2022/05/31 12:12:58;;;;;;;1.40;0.80;;;25.70;64.90;;;;;;4990692;28;20496;-76
2022/05/31 12:15:31;;;;;;;1.43;0.80;;;25.70;64.00;;;;;;5003766;28;20463;-76
2022/05/31 12:18:09;;;;;;;1.43;0.90;;;25.80;65.10;;;;;;5001303;28;20565;-76
2022/05/31 12:20:42;;;;;;;1.47;0.80;;;26.10;64.30;;;;;;5002997;28;21021;-76
2022/05/31 12:23:16;;;;;;;1.47;0.80;;;26.10;62.30;;;;;;5003334;28;20854;-77
2022/05/31 12:25:48;;;;;;;1.40;0.80;;;26.20;61.60;;;;;;5003963;28;20468;-75
2022/05/31 12:28:21;;;;;;;1.40;0.80;;;26.10;61.60;;;;;;5001744;28;20503;-76
2022/05/31 12:30:59;;;;;;;1.40;0.80;;;25.90;58.60;;;;;;4989454;28;20971;-76
2022/05/31 12:33:44;;;;;;;1.40;0.80;;;25.80;59.60;;;;;;4994318;28;20471;-75
2022/05/31 12:36:13;;;;;;;1.47;0.80;;;26.00;60.50;;;;;;5033310;22;20505;-88
2022/05/31 12:39:06;;;;;;;1.40;0.80;;;26.20;61.30;;;;;;5024811;28;20459;-89
2022/05/31 12:41:40;;;;;;;1.40;0.80;;;26.50;58.60;;;;;;5017097;28;20467;-88
2022/05/31 12:44:13;;;;;;;1.43;0.80;;;26.30;59.60;;;;;;5026087;28;20498;-88
2022/05/31 12:46:45;;;;;;;1.40;0.90;;;26.20;58.20;;;;;;5029847;28;20478;-88
2022/05/31 12:49:24;;;;;;;1.47;0.80;;;26.20;58.90;;;;;;5028969;28;20471;-88
2022/05/31 12:55:56;;;;;;;1.50;0.80;;;25.70;58.40;;;;;;5053484;28;20456;-75
2022/05/31 12:58:40;;;;;;;1.60;1.10;;;25.50;59.80;;;;;;5034921;28;20493;-75
2022/05/31 13:01:23;;;;;;;1.50;0.90;;;25.10;59.20;;;;;;5052463;28;20553;-77
2022/05/31 13:03:57;;;;;;;1.47;0.80;;;24.50;59.00;;;;;;5041251;28;20489;-76
2022/05/31 13:06:35;;;;;;;1.73;1.20;;;24.40;62.90;;;;;;5047342;28;20567;-77
2022/05/31 13:09:04;;;;;;;2.13;1.27;;;24.30;62.40;;;;;;5057741;28;20468;-77
2022/05/31 13:20:32;;;;;;;1.47;0.80;;;23.30;59.50;;;;;;5045028;28;20465;-76
2022/05/31 13:23:06;;;;;;;1.47;0.80;;;22.90;61.60;;;;;;5052466;28;20537;-77
2022/05/31 13:25:38;;;;;;;1.40;0.80;;;22.80;62.20;;;;;;5047615;28;20738;-77
2022/05/31 13:28:05;;;;;;;1.50;0.90;;;22.40;62.00;;;;;;5050222;28;20458;-77
2022/05/31 13:30:35;;;;;;;1.43;0.90;;;22.30;62.30;;;;;;5046238;28;20480;-76
2022/05/31 13:33:13;;;;;;;1.47;0.90;;;22.30;63.10;;;;;;5047421;28;20494;-77
2022/05/31 13:35:41;;;;;;;1.43;0.80;;;22.40;64.40;;;;;;5046430;28;20523;-77
2022/05/31 13:38:15;;;;;;;1.40;0.87;;;22.60;63.30;;;;;;5054543;28;20535;-77